KEAN/EAN METAR and TAF weather

Enter ICAO airport designator
Station Type Date Time Source
KEAN METAR 2018/12/12 23:35 UTC NOAA

KEAN 122335Z AUTO 31012G17KT 10SM SCT044 OVC050 04/M03 A2981 RMK AO2 T00381028


Station Type Date Time Source
KEAN Decoded METAR 2018/12/12 23:35 UTC NOAA

Station name not available
Dec 12, 2018 - 06:35 PM EST / 2018.12.12 2335 UTC
Wind: from the NW (310 degrees) at 14 MPH (12 KT) gusting to 20 MPH (17 KT):0
Visibility: 10 mile(s):0
Sky conditions: overcast
Temperature: 38.8 F (3.8 C)
Dew Point: 27.0 F (-2.8 C)
Relative Humidity: 62%
Pressure (altimeter): 29.81 in. Hg (1009 hPa)
ob: KEAN 122335Z AUTO 31012G17KT 10SM SCT044 OVC050 04/M03 A2981 RMK AO2 T00381028
cycle: 23

Station Type Date Time Source
KEAN TAF UTC NOAA

Error!


Example: see airport list